sensor_id;sensor_type;location;lat;lon;timestamp;P1;durP1;ratioP1;P2;durP2;ratioP2
53907;SDS011;40469;47.998;7.794;2023-09-12T00:01:28;6.72;;;4.03;;
53907;SDS011;40469;47.998;7.794;2023-09-12T00:03:57;7.50;;;4.63;;
53907;SDS011;40469;47.998;7.794;2023-09-12T00:06:23;6.93;;;4.13;;
53907;SDS011;40469;47.998;7.794;2023-09-12T00:08:48;6.72;;;3.80;;
53907;SDS011;40469;47.998;7.794;2023-09-12T00:11:14;9.13;;;4.47;;
53907;SDS011;40469;47.998;7.794;2023-09-12T00:13:39;7.15;;;4.40;;
53907;SDS011;40469;47.998;7.794;2023-09-12T00:16:06;10.07;;;4.97;;
53907;SDS011;40469;47.998;7.794;2023-09-12T00:18:34;8.05;;;4.22;;
53907;SDS011;40469;47.998;7.794;2023-09-12T00:21:00;9.18;;;4.88;;
53907;SDS011;40469;47.998;7.794;2023-09-12T00:23:25;6.72;;;4.38;;
53907;SDS011;40469;47.998;7.794;2023-09-12T00:25:51;7.03;;;4.75;;
53907;SDS011;40469;47.998;7.794;2023-09-12T00:28:17;10.98;;;4.00;;
53907;SDS011;40469;47.998;7.794;2023-09-12T00:30:43;7.82;;;4.65;;
53907;SDS011;40469;47.998;7.794;2023-09-12T00:33:08;8.85;;;4.78;;
53907;SDS011;40469;47.998;7.794;2023-09-12T00:35:33;9.48;;;5.20;;
53907;SDS011;40469;47.998;7.794;2023-09-12T00:37:59;9.68;;;4.93;;
53907;SDS011;40469;47.998;7.794;2023-09-12T00:40:24;9.02;;;4.57;;
53907;SDS011;40469;47.998;7.794;2023-09-12T00:42:50;7.20;;;4.18;;
53907;SDS011;40469;47.998;7.794;2023-09-12T00:45:16;9.80;;;4.28;;
53907;SDS011;40469;47.998;7.794;2023-09-12T00:47:41;7.45;;;4.35;;
53907;SDS011;40469;47.998;7.794;2023-09-12T00:50:06;6.88;;;4.25;;
53907;SDS011;40469;47.998;7.794;2023-09-12T00:52:33;7.85;;;4.35;;
53907;SDS011;40469;47.998;7.794;2023-09-12T00:55:00;7.40;;;4.30;;
53907;SDS011;40469;47.998;7.794;2023-09-12T00:57:26;9.40;;;4.40;;
53907;SDS011;40469;47.998;7.794;2023-09-12T00:59:51;8.50;;;4.75;;
53907;SDS011;40469;47.998;7.794;2023-09-12T01:02:18;8.57;;;4.70;;
53907;SDS011;40469;47.998;7.794;2023-09-12T01:04:44;7.90;;;4.65;;
53907;SDS011;40469;47.998;7.794;2023-09-12T01:07:10;11.40;;;4.57;;
53907;SDS011;40469;47.998;7.794;2023-09-12T01:09:35;8.70;;;4.97;;
53907;SDS011;40469;47.998;7.794;2023-09-12T01:12:01;10.48;;;5.03;;
53907;SDS011;40469;47.998;7.794;2023-09-12T01:14:29;6.90;;;4.72;;
53907;SDS011;40469;47.998;7.794;2023-09-12T01:16:55;6.53;;;4.60;;
53907;SDS011;40469;47.998;7.794;2023-09-12T01:19:22;7.15;;;4.82;;
53907;SDS011;40469;47.998;7.794;2023-09-12T01:27:47;7.70;;;4.57;;
53907;SDS011;40469;47.998;7.794;2023-09-12T01:30:17;8.55;;;4.90;;
53907;SDS011;40469;47.998;7.794;2023-09-12T01:32:45;10.07;;;4.63;;
53907;SDS011;40469;47.998;7.794;2023-09-12T01:35:12;9.07;;;5.10;;
53907;SDS011;40469;47.998;7.794;2023-09-12T01:37:37;7.50;;;4.03;;
53907;SDS011;40469;47.998;7.794;2023-09-12T01:40:03;9.25;;;4.85;;
53907;SDS011;40469;47.998;7.794;2023-09-12T01:42:39;6.70;;;4.00;;
53907;SDS011;40469;47.998;7.794;2023-09-12T01:45:13;7.60;;;4.40;;
53907;SDS011;40469;47.998;7.794;2023-09-12T01:47:41;7.90;;;4.68;;
53907;SDS011;40469;47.998;7.794;2023-09-12T01:50:08;6.75;;;4.35;;
53907;SDS011;40469;47.998;7.794;2023-09-12T01:52:37;8.32;;;4.60;;
53907;SDS011;40469;47.998;7.794;2023-09-12T01:55:04;8.25;;;4.47;;
53907;SDS011;40469;47.998;7.794;2023-09-12T01:57:30;5.65;;;3.80;;
53907;SDS011;40469;47.998;7.794;2023-09-12T01:59:55;8.35;;;4.40;;
53907;SDS011;40469;47.998;7.794;2023-09-12T02:02:21;9.55;;;4.90;;
53907;SDS011;40469;47.998;7.794;2023-09-12T02:04:49;6.75;;;4.22;;
53907;SDS011;40469;47.998;7.794;2023-09-12T02:07:21;7.53;;;5.00;;
53907;SDS011;40469;47.998;7.794;2023-09-12T02:09:49;10.45;;;4.63;;
53907;SDS011;40469;47.998;7.794;2023-09-12T02:12:14;6.82;;;4.55;;
53907;SDS011;40469;47.998;7.794;2023-09-12T02:14:39;7.00;;;4.53;;
53907;SDS011;40469;47.998;7.794;2023-09-12T02:17:05;8.93;;;4.57;;
53907;SDS011;40469;47.998;7.794;2023-09-12T02:19:30;8.25;;;4.60;;
53907;SDS011;40469;47.998;7.794;2023-09-12T02:21:55;9.50;;;5.03;;
53907;SDS011;40469;47.998;7.794;2023-09-12T02:24:21;10.20;;;4.95;;
53907;SDS011;40469;47.998;7.794;2023-09-12T02:26:47;9.35;;;4.75;;
53907;SDS011;40469;47.998;7.794;2023-09-12T02:29:12;8.00;;;4.50;;
53907;SDS011;40469;47.998;7.794;2023-09-12T02:31:37;6.97;;;4.68;;
53907;SDS011;40469;47.998;7.794;2023-09-12T02:34:03;9.23;;;4.90;;
53907;SDS011;40469;47.998;7.794;2023-09-12T02:36:28;9.27;;;4.75;;
53907;SDS011;40469;47.998;7.794;2023-09-12T02:38:53;10.65;;;4.78;;
53907;SDS011;40469;47.998;7.794;2023-09-12T02:41:19;8.68;;;4.72;;
53907;SDS011;40469;47.998;7.794;2023-09-12T02:43:44;7.30;;;4.32;;
53907;SDS011;40469;47.998;7.794;2023-09-12T02:46:09;6.40;;;4.18;;
53907;SDS011;40469;47.998;7.794;2023-09-12T02:48:35;8.07;;;4.18;;
53907;SDS011;40469;47.998;7.794;2023-09-12T02:51:00;5.97;;;3.95;;
53907;SDS011;40469;47.998;7.794;2023-09-12T02:53:25;7.15;;;4.18;;
53907;SDS011;40469;47.998;7.794;2023-09-12T02:55:51;8.38;;;4.78;;
53907;SDS011;40469;47.998;7.794;2023-09-12T02:58:16;8.27;;;4.22;;
53907;SDS011;40469;47.998;7.794;2023-09-12T03:00:41;8.75;;;4.53;;
53907;SDS011;40469;47.998;7.794;2023-09-12T03:03:07;7.47;;;4.38;;
53907;SDS011;40469;47.998;7.794;2023-09-12T03:05:34;6.70;;;4.47;;
53907;SDS011;40469;47.998;7.794;2023-09-12T03:07:59;8.63;;;4.60;;
53907;SDS011;40469;47.998;7.794;2023-09-12T03:10:25;7.97;;;4.75;;
53907;SDS011;40469;47.998;7.794;2023-09-12T03:12:50;7.43;;;4.22;;
53907;SDS011;40469;47.998;7.794;2023-09-12T03:15:15;7.35;;;4.55;;
53907;SDS011;40469;47.998;7.794;2023-09-12T03:17:41;9.45;;;5.57;;
53907;SDS011;40469;47.998;7.794;2023-09-12T03:20:06;11.55;;;4.88;;
53907;SDS011;40469;47.998;7.794;2023-09-12T03:22:34;10.38;;;4.80;;
53907;SDS011;40469;47.998;7.794;2023-09-12T03:25:03;8.95;;;4.53;;
53907;SDS011;40469;47.998;7.794;2023-09-12T03:27:29;9.50;;;4.80;;
53907;SDS011;40469;47.998;7.794;2023-09-12T03:29:54;10.57;;;5.25;;
53907;SDS011;40469;47.998;7.794;2023-09-12T03:32:19;8.48;;;5.00;;
53907;SDS011;40469;47.998;7.794;2023-09-12T03:34:45;7.72;;;4.97;;
53907;SDS011;40469;47.998;7.794;2023-09-12T03:37:10;10.40;;;5.00;;
53907;SDS011;40469;47.998;7.794;2023-09-12T03:39:35;9.65;;;5.13;;
53907;SDS011;40469;47.998;7.794;2023-09-12T03:42:00;9.68;;;4.90;;
53907;SDS011;40469;47.998;7.794;2023-09-12T03:44:26;9.45;;;5.45;;
53907;SDS011;40469;47.998;7.794;2023-09-12T03:46:51;12.38;;;5.38;;
53907;SDS011;40469;47.998;7.794;2023-09-12T03:49:17;8.45;;;5.35;;
53907;SDS011;40469;47.998;7.794;2023-09-12T03:51:42;9.70;;;5.78;;
53907;SDS011;40469;47.998;7.794;2023-09-12T03:54:07;9.98;;;5.97;;
53907;SDS011;40469;47.998;7.794;2023-09-12T03:56:33;8.32;;;5.03;;
53907;SDS011;40469;47.998;7.794;2023-09-12T03:58:58;9.48;;;5.57;;
53907;SDS011;40469;47.998;7.794;2023-09-12T04:01:24;9.38;;;5.63;;
53907;SDS011;40469;47.998;7.794;2023-09-12T04:03:50;8.52;;;5.38;;
53907;SDS011;40469;47.998;7.794;2023-09-12T04:06:15;9.32;;;5.55;;
53907;SDS011;40469;47.998;7.794;2023-09-12T04:08:41;11.15;;;5.72;;
53907;SDS011;40469;47.998;7.794;2023-09-12T04:11:06;11.15;;;6.15;;
53907;SDS011;40469;47.998;7.794;2023-09-12T04:13:31;8.70;;;5.63;;
53907;SDS011;40469;47.998;7.794;2023-09-12T04:15:57;8.27;;;5.30;;
53907;SDS011;40469;47.998;7.794;2023-09-12T04:18:22;9.77;;;5.75;;
53907;SDS011;40469;47.998;7.794;2023-09-12T04:20:47;8.90;;;5.57;;
53907;SDS011;40469;47.998;7.794;2023-09-12T04:23:12;7.70;;;5.05;;
53907;SDS011;40469;47.998;7.794;2023-09-12T04:25:41;8.52;;;5.47;;
53907;SDS011;40469;47.998;7.794;2023-09-12T04:28:07;9.48;;;6.28;;
53907;SDS011;40469;47.998;7.794;2023-09-12T04:30:33;9.77;;;5.35;;
53907;SDS011;40469;47.998;7.794;2023-09-12T04:32:58;9.82;;;6.35;;
53907;SDS011;40469;47.998;7.794;2023-09-12T04:35:23;9.75;;;6.05;;
53907;SDS011;40469;47.998;7.794;2023-09-12T04:37:50;13.00;;;6.68;;
53907;SDS011;40469;47.998;7.794;2023-09-12T04:40:15;11.50;;;6.47;;
53907;SDS011;40469;47.998;7.794;2023-09-12T04:42:41;13.68;;;6.97;;
53907;SDS011;40469;47.998;7.794;2023-09-12T04:45:06;12.98;;;6.93;;
53907;SDS011;40469;47.998;7.794;2023-09-12T04:47:32;11.63;;;6.03;;
53907;SDS011;40469;47.998;7.794;2023-09-12T04:49:57;12.45;;;7.20;;
53907;SDS011;40469;47.998;7.794;2023-09-12T04:52:22;14.30;;;6.90;;
53907;SDS011;40469;47.998;7.794;2023-09-12T04:54:48;11.50;;;6.25;;
53907;SDS011;40469;47.998;7.794;2023-09-12T04:57:13;11.18;;;6.65;;
53907;SDS011;40469;47.998;7.794;2023-09-12T04:59:39;12.68;;;6.50;;
53907;SDS011;40469;47.998;7.794;2023-09-12T05:02:04;10.52;;;5.85;;
53907;SDS011;40469;47.998;7.794;2023-09-12T05:04:29;13.63;;;7.10;;
53907;SDS011;40469;47.998;7.794;2023-09-12T05:06:55;9.18;;;5.85;;
53907;SDS011;40469;47.998;7.794;2023-09-12T05:09:20;10.18;;;5.95;;
53907;SDS011;40469;47.998;7.794;2023-09-12T05:11:45;9.40;;;5.68;;
53907;SDS011;40469;47.998;7.794;2023-09-12T05:14:11;10.88;;;5.70;;
53907;SDS011;40469;47.998;7.794;2023-09-12T05:16:36;11.30;;;6.03;;
53907;SDS011;40469;47.998;7.794;2023-09-12T05:19:02;9.93;;;6.32;;
53907;SDS011;40469;47.998;7.794;2023-09-12T05:21:30;9.48;;;6.20;;
53907;SDS011;40469;47.998;7.794;2023-09-12T05:23:55;10.32;;;6.13;;
53907;SDS011;40469;47.998;7.794;2023-09-12T05:26:21;9.65;;;6.22;;
53907;SDS011;40469;47.998;7.794;2023-09-12T05:28:46;12.35;;;6.28;;
53907;SDS011;40469;47.998;7.794;2023-09-12T05:31:11;12.52;;;6.43;;
53907;SDS011;40469;47.998;7.794;2023-09-12T05:33:37;9.68;;;6.07;;
53907;SDS011;40469;47.998;7.794;2023-09-12T05:36:02;11.45;;;6.30;;
53907;SDS011;40469;47.998;7.794;2023-09-12T05:38:28;9.98;;;6.53;;
53907;SDS011;40469;47.998;7.794;2023-09-12T05:40:53;10.25;;;6.03;;
53907;SDS011;40469;47.998;7.794;2023-09-12T05:43:18;10.93;;;6.40;;
53907;SDS011;40469;47.998;7.794;2023-09-12T05:45:44;10.20;;;6.05;;
53907;SDS011;40469;47.998;7.794;2023-09-12T05:48:10;8.55;;;5.85;;
53907;SDS011;40469;47.998;7.794;2023-09-12T05:50:36;10.52;;;5.88;;
53907;SDS011;40469;47.998;7.794;2023-09-12T05:53:02;11.20;;;6.18;;
53907;SDS011;40469;47.998;7.794;2023-09-12T05:55:28;8.52;;;5.18;;
53907;SDS011;40469;47.998;7.794;2023-09-12T05:57:53;11.45;;;5.95;;
53907;SDS011;40469;47.998;7.794;2023-09-12T06:00:19;10.95;;;5.95;;
53907;SDS011;40469;47.998;7.794;2023-09-12T06:02:45;12.10;;;5.65;;
53907;SDS011;40469;47.998;7.794;2023-09-12T06:05:11;9.30;;;5.57;;
53907;SDS011;40469;47.998;7.794;2023-09-12T06:07:37;12.52;;;5.75;;
53907;SDS011;40469;47.998;7.794;2023-09-12T06:10:05;11.00;;;6.45;;
53907;SDS011;40469;47.998;7.794;2023-09-12T06:12:31;9.50;;;5.88;;
53907;SDS011;40469;47.998;7.794;2023-09-12T06:14:57;8.60;;;5.43;;
53907;SDS011;40469;47.998;7.794;2023-09-12T06:17:23;9.68;;;5.68;;
53907;SDS011;40469;47.998;7.794;2023-09-12T06:19:48;10.73;;;5.75;;
53907;SDS011;40469;47.998;7.794;2023-09-12T06:22:14;12.43;;;5.95;;
53907;SDS011;40469;47.998;7.794;2023-09-12T06:24:42;10.65;;;5.70;;
53907;SDS011;40469;47.998;7.794;2023-09-12T06:27:07;11.25;;;6.22;;
53907;SDS011;40469;47.998;7.794;2023-09-12T06:29:33;8.70;;;6.10;;
53907;SDS011;40469;47.998;7.794;2023-09-12T06:31:58;11.40;;;6.38;;
53907;SDS011;40469;47.998;7.794;2023-09-12T06:36:54;10.05;;;5.90;;
53907;SDS011;40469;47.998;7.794;2023-09-12T06:39:19;10.60;;;5.70;;
53907;SDS011;40469;47.998;7.794;2023-09-12T06:41:44;9.88;;;6.22;;
53907;SDS011;40469;47.998;7.794;2023-09-12T06:44:09;10.85;;;5.18;;
53907;SDS011;40469;47.998;7.794;2023-09-12T06:46:35;11.07;;;6.20;;
53907;SDS011;40469;47.998;7.794;2023-09-12T06:49:03;8.70;;;5.35;;
53907;SDS011;40469;47.998;7.794;2023-09-12T06:51:29;9.52;;;5.75;;
53907;SDS011;40469;47.998;7.794;2023-09-12T06:53:54;16.02;;;5.80;;
53907;SDS011;40469;47.998;7.794;2023-09-12T06:56:20;8.98;;;5.88;;
53907;SDS011;40469;47.998;7.794;2023-09-12T06:58:47;9.50;;;5.30;;
53907;SDS011;40469;47.998;7.794;2023-09-12T07:01:12;10.07;;;5.07;;
53907;SDS011;40469;47.998;7.794;2023-09-12T07:03:38;10.80;;;5.55;;
53907;SDS011;40469;47.998;7.794;2023-09-12T07:06:03;9.25;;;5.30;;
53907;SDS011;40469;47.998;7.794;2023-09-12T07:08:30;8.73;;;5.43;;
53907;SDS011;40469;47.998;7.794;2023-09-12T07:10:56;9.82;;;4.80;;
53907;SDS011;40469;47.998;7.794;2023-09-12T07:13:22;8.40;;;5.50;;
53907;SDS011;40469;47.998;7.794;2023-09-12T07:15:49;7.45;;;5.22;;
53907;SDS011;40469;47.998;7.794;2023-09-12T07:18:15;10.07;;;6.22;;
53907;SDS011;40469;47.998;7.794;2023-09-12T07:20:40;15.80;;;6.32;;
53907;SDS011;40469;47.998;7.794;2023-09-12T07:23:06;18.92;;;6.05;;
53907;SDS011;40469;47.998;7.794;2023-09-12T07:25:35;12.73;;;5.85;;
53907;SDS011;40469;47.998;7.794;2023-09-12T07:28:03;12.15;;;5.97;;
53907;SDS011;40469;47.998;7.794;2023-09-12T07:30:29;10.25;;;5.15;;
53907;SDS011;40469;47.998;7.794;2023-09-12T07:32:55;7.82;;;5.35;;
53907;SDS011;40469;47.998;7.794;2023-09-12T07:35:20;8.55;;;5.22;;
53907;SDS011;40469;47.998;7.794;2023-09-12T07:37:48;10.55;;;5.50;;
53907;SDS011;40469;47.998;7.794;2023-09-12T07:40:14;8.38;;;5.43;;
53907;SDS011;40469;47.998;7.794;2023-09-12T07:42:39;11.65;;;5.75;;
53907;SDS011;40469;47.998;7.794;2023-09-12T07:45:05;10.38;;;5.20;;
53907;SDS011;40469;47.998;7.794;2023-09-12T07:47:31;7.88;;;5.05;;
53907;SDS011;40469;47.998;7.794;2023-09-12T07:49:58;8.30;;;4.97;;
53907;SDS011;40469;47.998;7.794;2023-09-12T07:52:25;9.52;;;5.75;;
53907;SDS011;40469;47.998;7.794;2023-09-12T07:54:50;8.18;;;5.35;;
53907;SDS011;40469;47.998;7.794;2023-09-12T07:57:18;8.02;;;4.65;;
53907;SDS011;40469;47.998;7.794;2023-09-12T07:59:43;7.95;;;5.05;;
53907;SDS011;40469;47.998;7.794;2023-09-12T08:02:09;8.18;;;5.03;;
53907;SDS011;40469;47.998;7.794;2023-09-12T08:04:37;8.40;;;5.50;;
53907;SDS011;40469;47.998;7.794;2023-09-12T08:07:03;8.32;;;5.03;;
53907;SDS011;40469;47.998;7.794;2023-09-12T08:09:47;9.80;;;5.07;;
53907;SDS011;40469;47.998;7.794;2023-09-12T08:12:17;9.07;;;5.63;;
53907;SDS011;40469;47.998;7.794;2023-09-12T08:14:43;10.23;;;5.60;;
53907;SDS011;40469;47.998;7.794;2023-09-12T08:17:10;8.07;;;4.82;;
53907;SDS011;40469;47.998;7.794;2023-09-12T08:19:36;9.93;;;5.70;;
53907;SDS011;40469;47.998;7.794;2023-09-12T08:22:01;9.45;;;5.63;;
53907;SDS011;40469;47.998;7.794;2023-09-12T08:24:27;8.95;;;4.85;;
53907;SDS011;40469;47.998;7.794;2023-09-12T08:26:52;6.78;;;4.82;;
53907;SDS011;40469;47.998;7.794;2023-09-12T08:29:18;10.20;;;5.20;;
53907;SDS011;40469;47.998;7.794;2023-09-12T08:31:43;9.50;;;5.05;;
53907;SDS011;40469;47.998;7.794;2023-09-12T08:34:10;11.68;;;5.90;;
53907;SDS011;40469;47.998;7.794;2023-09-12T08:36:35;10.45;;;5.18;;
53907;SDS011;40469;47.998;7.794;2023-09-12T08:39:01;7.63;;;4.82;;
53907;SDS011;40469;47.998;7.794;2023-09-12T08:41:26;7.80;;;5.05;;
53907;SDS011;40469;47.998;7.794;2023-09-12T08:43:51;8.00;;;5.55;;
53907;SDS011;40469;47.998;7.794;2023-09-12T08:46:18;8.80;;;4.72;;
53907;SDS011;40469;47.998;7.794;2023-09-12T08:48:46;7.47;;;4.60;;
53907;SDS011;40469;47.998;7.794;2023-09-12T08:51:13;10.27;;;4.95;;
53907;SDS011;40469;47.998;7.794;2023-09-12T08:53:39;7.20;;;4.80;;
53907;SDS011;40469;47.998;7.794;2023-09-12T08:56:04;7.93;;;4.70;;
53907;SDS011;40469;47.998;7.794;2023-09-12T08:58:31;7.63;;;4.93;;
53907;SDS011;40469;47.998;7.794;2023-09-12T09:00:57;10.00;;;5.05;;
53907;SDS011;40469;47.998;7.794;2023-09-12T09:03:23;7.93;;;4.22;;
53907;SDS011;40469;47.998;7.794;2023-09-12T09:05:49;7.68;;;4.43;;
53907;SDS011;40469;47.998;7.794;2023-09-12T09:08:17;8.05;;;4.35;;
53907;SDS011;40469;47.998;7.794;2023-09-12T09:10:59;7.10;;;4.32;;
53907;SDS011;40469;47.998;7.794;2023-09-12T09:13:27;9.02;;;4.32;;
53907;SDS011;40469;47.998;7.794;2023-09-12T09:18:55;8.63;;;4.32;;
53907;SDS011;40469;47.998;7.794;2023-09-12T09:21:31;10.32;;;4.97;;
53907;SDS011;40469;47.998;7.794;2023-09-12T09:24:00;8.13;;;4.40;;
53907;SDS011;40469;47.998;7.794;2023-09-12T09:26:46;6.97;;;4.35;;
53907;SDS011;40469;47.998;7.794;2023-09-12T09:29:13;8.10;;;4.50;;
53907;SDS011;40469;47.998;7.794;2023-09-12T09:31:41;7.50;;;3.95;;
53907;SDS011;40469;47.998;7.794;2023-09-12T09:34:17;10.88;;;4.50;;
53907;SDS011;40469;47.998;7.794;2023-09-12T09:36:44;8.50;;;4.25;;
53907;SDS011;40469;47.998;7.794;2023-09-12T09:39:12;6.18;;;3.95;;
53907;SDS011;40469;47.998;7.794;2023-09-12T09:41:38;8.60;;;4.45;;
53907;SDS011;40469;47.998;7.794;2023-09-12T09:44:04;8.98;;;4.50;;
53907;SDS011;40469;47.998;7.794;2023-09-12T09:46:32;8.13;;;4.30;;
53907;SDS011;40469;47.998;7.794;2023-09-12T09:48:58;7.70;;;4.50;;
53907;SDS011;40469;47.998;7.794;2023-09-12T09:51:24;7.45;;;4.35;;
53907;SDS011;40469;47.998;7.794;2023-09-12T09:53:51;6.47;;;3.70;;
53907;SDS011;40469;47.998;7.794;2023-09-12T09:56:17;8.75;;;3.72;;
53907;SDS011;40469;47.998;7.794;2023-09-12T09:58:46;4.65;;;3.03;;
53907;SDS011;40469;47.998;7.794;2023-09-12T10:01:13;4.75;;;3.08;;
53907;SDS011;40469;47.998;7.794;2023-09-12T10:03:45;5.70;;;3.08;;
53907;SDS011;40469;47.998;7.794;2023-09-12T10:06:12;5.63;;;2.92;;
53907;SDS011;40469;47.998;7.794;2023-09-12T10:08:39;5.13;;;3.15;;
53907;SDS011;40469;47.998;7.794;2023-09-12T10:11:07;6.30;;;3.45;;
53907;SDS011;40469;47.998;7.794;2023-09-12T10:13:33;9.60;;;3.10;;
53907;SDS011;40469;47.998;7.794;2023-09-12T10:16:02;6.13;;;2.90;;
53907;SDS011;40469;47.998;7.794;2023-09-12T10:18:29;5.63;;;3.45;;
53907;SDS011;40469;47.998;7.794;2023-09-12T10:21:10;5.40;;;3.03;;
53907;SDS011;40469;47.998;7.794;2023-09-12T10:23:44;5.20;;;2.88;;
53907;SDS011;40469;47.998;7.794;2023-09-12T10:26:13;4.35;;;2.88;;
53907;SDS011;40469;47.998;7.794;2023-09-12T10:28:42;6.55;;;3.13;;
53907;SDS011;40469;47.998;7.794;2023-09-12T10:31:09;4.50;;;2.75;;
53907;SDS011;40469;47.998;7.794;2023-09-12T10:33:37;4.70;;;2.92;;
53907;SDS011;40469;47.998;7.794;2023-09-12T10:36:02;4.97;;;2.88;;
53907;SDS011;40469;47.998;7.794;2023-09-12T10:38:29;4.32;;;2.88;;
53907;SDS011;40469;47.998;7.794;2023-09-12T10:40:57;4.32;;;2.80;;
53907;SDS011;40469;47.998;7.794;2023-09-12T10:43:25;4.22;;;2.65;;
53907;SDS011;40469;47.998;7.794;2023-09-12T10:45:51;4.68;;;2.78;;
53907;SDS011;40469;47.998;7.794;2023-09-12T10:48:17;5.00;;;2.65;;
53907;SDS011;40469;47.998;7.794;2023-09-12T10:50:43;4.90;;;3.08;;
53907;SDS011;40469;47.998;7.794;2023-09-12T10:53:13;5.03;;;3.30;;
53907;SDS011;40469;47.998;7.794;2023-09-12T10:55:42;4.80;;;3.10;;
53907;SDS011;40469;47.998;7.794;2023-09-12T10:58:16;5.70;;;3.08;;
53907;SDS011;40469;47.998;7.794;2023-09-12T11:00:42;5.85;;;3.38;;
53907;SDS011;40469;47.998;7.794;2023-09-12T11:03:45;6.20;;;3.47;;
53907;SDS011;40469;47.998;7.794;2023-09-12T11:06:19;4.72;;;3.22;;
53907;SDS011;40469;47.998;7.794;2023-09-12T11:09:11;5.45;;;3.75;;
53907;SDS011;40469;47.998;7.794;2023-09-12T11:11:42;6.78;;;3.00;;
53907;SDS011;40469;47.998;7.794;2023-09-12T11:14:08;4.43;;;3.10;;
53907;SDS011;40469;47.998;7.794;2023-09-12T11:16:34;6.13;;;3.22;;
53907;SDS011;40469;47.998;7.794;2023-09-12T11:19:16;4.30;;;3.13;;
53907;SDS011;40469;47.998;7.794;2023-09-12T11:21:51;8.05;;;3.40;;
53907;SDS011;40469;47.998;7.794;2023-09-12T11:24:18;4.63;;;3.00;;
53907;SDS011;40469;47.998;7.794;2023-09-12T11:26:54;4.80;;;2.83;;
53907;SDS011;40469;47.998;7.794;2023-09-12T11:29:20;5.13;;;3.20;;
53907;SDS011;40469;47.998;7.794;2023-09-12T11:31:56;5.20;;;3.35;;
53907;SDS011;40469;47.998;7.794;2023-09-12T11:34:26;6.38;;;3.22;;
53907;SDS011;40469;47.998;7.794;2023-09-12T11:36:56;4.60;;;3.53;;
53907;SDS011;40469;47.998;7.794;2023-09-12T11:39:28;5.18;;;3.10;;
53907;SDS011;40469;47.998;7.794;2023-09-12T11:41:58;5.20;;;3.28;;
53907;SDS011;40469;47.998;7.794;2023-09-12T11:44:25;4.72;;;3.00;;
53907;SDS011;40469;47.998;7.794;2023-09-12T11:46:52;5.50;;;3.22;;
53907;SDS011;40469;47.998;7.794;2023-09-12T11:49:18;4.63;;;2.97;;
53907;SDS011;40469;47.998;7.794;2023-09-12T11:51:51;5.07;;;3.45;;
53907;SDS011;40469;47.998;7.794;2023-09-12T11:54:19;5.43;;;4.20;;
53907;SDS011;40469;47.998;7.794;2023-09-12T11:56:48;5.80;;;3.20;;
53907;SDS011;40469;47.998;7.794;2023-09-12T11:59:15;6.45;;;3.53;;
53907;SDS011;40469;47.998;7.794;2023-09-12T12:01:43;7.20;;;3.60;;
53907;SDS011;40469;47.998;7.794;2023-09-12T12:04:10;6.47;;;3.60;;
53907;SDS011;40469;47.998;7.794;2023-09-12T12:06:35;4.85;;;3.28;;
53907;SDS011;40469;47.998;7.794;2023-09-12T12:09:01;5.38;;;3.30;;
53907;SDS011;40469;47.998;7.794;2023-09-12T12:11:28;4.50;;;3.40;;
53907;SDS011;40469;47.998;7.794;2023-09-12T12:13:53;5.47;;;3.38;;
53907;SDS011;40469;47.998;7.794;2023-09-12T12:16:19;5.78;;;3.80;;
53907;SDS011;40469;47.998;7.794;2023-09-12T12:18:44;5.20;;;3.33;;
53907;SDS011;40469;47.998;7.794;2023-09-12T12:21:10;5.90;;;3.70;;
53907;SDS011;40469;47.998;7.794;2023-09-12T12:23:35;5.20;;;3.67;;
53907;SDS011;40469;47.998;7.794;2023-09-12T12:26:10;6.43;;;3.28;;
53907;SDS011;40469;47.998;7.794;2023-09-12T12:28:35;5.22;;;3.33;;
53907;SDS011;40469;47.998;7.794;2023-09-12T12:31:01;7.78;;;4.00;;
53907;SDS011;40469;47.998;7.794;2023-09-12T12:33:27;5.28;;;3.33;;
53907;SDS011;40469;47.998;7.794;2023-09-12T12:36:03;5.00;;;3.20;;
53907;SDS011;40469;47.998;7.794;2023-09-12T12:38:36;8.23;;;3.63;;
53907;SDS011;40469;47.998;7.794;2023-09-12T12:41:03;4.80;;;3.30;;
53907;SDS011;40469;47.998;7.794;2023-09-12T12:43:28;5.45;;;3.72;;
53907;SDS011;40469;47.998;7.794;2023-09-12T12:45:55;7.03;;;3.28;;
53907;SDS011;40469;47.998;7.794;2023-09-12T12:48:31;6.90;;;3.88;;
53907;SDS011;40469;47.998;7.794;2023-09-12T12:50:58;4.53;;;3.10;;
53907;SDS011;40469;47.998;7.794;2023-09-12T12:53:37;5.32;;;3.60;;
53907;SDS011;40469;47.998;7.794;2023-09-12T12:56:03;7.15;;;3.90;;
53907;SDS011;40469;47.998;7.794;2023-09-12T12:58:28;4.85;;;3.85;;
53907;SDS011;40469;47.998;7.794;2023-09-12T13:00:54;4.95;;;3.70;;
53907;SDS011;40469;47.998;7.794;2023-09-12T13:03:19;4.85;;;3.60;;
53907;SDS011;40469;47.998;7.794;2023-09-12T13:05:44;4.97;;;3.25;;
53907;SDS011;40469;47.998;7.794;2023-09-12T13:08:10;5.55;;;3.90;;
53907;SDS011;40469;47.998;7.794;2023-09-12T13:10:35;4.97;;;3.53;;
53907;SDS011;40469;47.998;7.794;2023-09-12T13:13:02;5.25;;;3.30;;
53907;SDS011;40469;47.998;7.794;2023-09-12T13:15:29;6.53;;;3.10;;
53907;SDS011;40469;47.998;7.794;2023-09-12T13:17:54;5.82;;;3.53;;
53907;SDS011;40469;47.998;7.794;2023-09-12T13:20:20;4.72;;;3.25;;
53907;SDS011;40469;47.998;7.794;2023-09-12T13:22:45;4.25;;;2.95;;
53907;SDS011;40469;47.998;7.794;2023-09-12T13:25:10;5.60;;;3.13;;
53907;SDS011;40469;47.998;7.794;2023-09-12T13:27:36;4.63;;;2.28;;
53907;SDS011;40469;47.998;7.794;2023-09-12T13:30:02;3.08;;;2.08;;
53907;SDS011;40469;47.998;7.794;2023-09-12T13:32:29;3.42;;;1.75;;
53907;SDS011;40469;47.998;7.794;2023-09-12T13:34:54;3.35;;;2.00;;
53907;SDS011;40469;47.998;7.794;2023-09-12T13:37:20;3.65;;;2.00;;
53907;SDS011;40469;47.998;7.794;2023-09-12T13:39:46;3.17;;;1.55;;
53907;SDS011;40469;47.998;7.794;2023-09-12T13:42:14;3.80;;;1.88;;
53907;SDS011;40469;47.998;7.794;2023-09-12T13:44:43;3.78;;;2.20;;
53907;SDS011;40469;47.998;7.794;2023-09-12T13:47:09;3.13;;;2.13;;
53907;SDS011;40469;47.998;7.794;2023-09-12T13:49:34;3.95;;;2.22;;
53907;SDS011;40469;47.998;7.794;2023-09-12T13:51:59;4.72;;;1.83;;
53907;SDS011;40469;47.998;7.794;2023-09-12T13:54:25;4.72;;;1.50;;
53907;SDS011;40469;47.998;7.794;2023-09-12T13:56:50;3.45;;;2.22;;
53907;SDS011;40469;47.998;7.794;2023-09-12T13:59:15;4.93;;;1.90;;
53907;SDS011;40469;47.998;7.794;2023-09-12T14:01:41;5.00;;;1.92;;
53907;SDS011;40469;47.998;7.794;2023-09-12T14:04:07;3.55;;;2.05;;
53907;SDS011;40469;47.998;7.794;2023-09-12T14:06:32;4.15;;;2.00;;
53907;SDS011;40469;47.998;7.794;2023-09-12T14:08:59;4.05;;;1.90;;
53907;SDS011;40469;47.998;7.794;2023-09-12T14:11:25;3.45;;;2.08;;
53907;SDS011;40469;47.998;7.794;2023-09-12T14:13:50;4.28;;;2.13;;
53907;SDS011;40469;47.998;7.794;2023-09-12T14:16:15;3.47;;;2.38;;
53907;SDS011;40469;47.998;7.794;2023-09-12T14:18:41;7.45;;;2.90;;
53907;SDS011;40469;47.998;7.794;2023-09-12T14:21:06;3.08;;;2.00;;
53907;SDS011;40469;47.998;7.794;2023-09-12T14:23:31;3.53;;;2.15;;
53907;SDS011;40469;47.998;7.794;2023-09-12T14:25:57;4.38;;;2.15;;
53907;SDS011;40469;47.998;7.794;2023-09-12T14:28:22;4.20;;;2.38;;
53907;SDS011;40469;47.998;7.794;2023-09-12T14:30:47;5.68;;;2.50;;
53907;SDS011;40469;47.998;7.794;2023-09-12T14:33:14;6.47;;;2.58;;
53907;SDS011;40469;47.998;7.794;2023-09-12T14:35:40;4.70;;;2.58;;
53907;SDS011;40469;47.998;7.794;2023-09-12T14:38:08;4.10;;;2.05;;
53907;SDS011;40469;47.998;7.794;2023-09-12T14:40:34;5.88;;;2.88;;
53907;SDS011;40469;47.998;7.794;2023-09-12T14:42:59;5.40;;;2.97;;
53907;SDS011;40469;47.998;7.794;2023-09-12T14:45:26;4.35;;;2.75;;
53907;SDS011;40469;47.998;7.794;2023-09-12T14:47:52;5.25;;;2.38;;
53907;SDS011;40469;47.998;7.794;2023-09-12T14:50:20;7.22;;;2.42;;
53907;SDS011;40469;47.998;7.794;2023-09-12T14:52:45;5.05;;;2.42;;
53907;SDS011;40469;47.998;7.794;2023-09-12T14:55:10;4.97;;;2.55;;